Accueil
METAR-TAF:

METAR-TAF

Aéroports :

Istres, France

Base aérienne 125 Istres-Le Tubé

latitude: 43-31N, longitude: 004-56E, altitude: 23 m

Observation

Le bulletin a été fait il y a 17 minutes, à 16:30 UTC
Vent 18 kt de nord/nord-ouest
Température 29°C
Humidité 25%
Pression 1015 hPa
Visibilité 10 km ou plus
pas de nuages en-dessous de 1500 mètres et pas de cumulonimbus.

METAR: LFMI 191630Z AUTO 34018KT CAVOK 29/07 Q1015 TEMPO 33023G33KT

Heure: 18:47 (16:47 UTC)

Prévision

Le bulletin a été fait il y a 2 heures et 47 minutes, à 14:00 UTC
Prévision valable du 19 à 15 UTC au 20 à 15 UTC
Vent 20 kt de nord/nord-ouest
Visibilité 10 km ou plus
pas de nuages en-dessous de 1500 mètres et pas de cumulonimbus.
Temporairement
du 19 à 15 UTC au 20 à 15 UTC
Vent 23 kt de nord/nord-ouest avec des rafales jusqu'à 33 kt

TAF: LFMI 191400Z 1915/2015 33020KT CAVOK TEMPO 1915/2015 33023G33KT

Observations et prévisions météorologiques de plus de 4000 aéroports (messages METAR et TAF).

Les stations disponibles sont représentées par des disques jaunes et rouges sur la carte.

Passer la souris dessus pour voir le nom de la station.

Cliquer dessus pour voir les observations et prévisions météorologiques.

Pour changer de carte: cliquez sur les boutons verts avec une croix noire pour zoomer, sur le bouton vert avec un tiret pour effectuer un zoom arrière, ou sur les flèches vertes pour les cartes adjacentes.


METAR-TAF: